createdAt,value
2017-04-02T00:00:38.786Z,77.80
2017-04-02T00:01:37.313Z,78.20
2017-04-02T00:02:36.945Z,78.30
2017-04-02T00:03:35.454Z,78.30
2017-04-02T00:04:34.729Z,78.50
2017-04-02T00:05:33.986Z,79.40
2017-04-02T00:06:33.254Z,78.90
2017-04-02T00:07:31.781Z,78.90
2017-04-02T00:08:31.428Z,79.10
2017-04-02T00:09:29.931Z,79.10
2017-04-02T00:10:29.239Z,79.20
2017-04-02T00:11:27.712Z,79.20
2017-04-02T00:12:26.193Z,79.30
2017-04-02T00:13:24.689Z,79.50
2017-04-02T00:14:23.605Z,79.70
2017-04-02T00:15:22.072Z,79.80
2017-04-02T00:16:20.571Z,79.60
2017-04-02T00:17:19.052Z,79.60
2017-04-02T00:18:18.306Z,79.80
2017-04-02T00:19:16.785Z,79.80
2017-04-02T00:20:15.590Z,79.90
2017-04-02T00:21:14.060Z,80.20
2017-04-02T00:22:12.537Z,80.50
2017-04-02T00:23:11.028Z,80.60
2017-04-02T00:24:10.293Z,80.90
2017-04-02T00:25:09.545Z,81.20
2017-04-02T00:26:08.304Z,81.20
2017-04-02T00:27:06.845Z,80.90
2017-04-02T00:28:06.108Z,81.00
2017-04-02T00:29:05.372Z,81.50
2017-04-02T00:30:04.631Z,81.80
2017-04-02T00:31:03.095Z,81.80
2017-04-02T00:32:01.944Z,82.10
2017-04-02T00:33:00.455Z,82.20
2017-04-02T00:33:59.712Z,82.40
2017-04-02T00:34:58.242Z,82.30
2017-04-02T00:35:56.722Z,83.10
2017-04-02T00:36:55.249Z,82.70
2017-04-02T00:37:54.888Z,83.00
2017-04-02T00:38:54.120Z,83.50
2017-04-02T00:39:53.345Z,84.00
2017-04-02T00:40:51.837Z,84.00
2017-04-02T00:41:50.349Z,83.60
2017-04-02T00:42:48.842Z,83.00
2017-04-02T00:43:47.604Z,82.80
2017-04-02T00:44:46.129Z,82.70
2017-04-02T00:45:45.370Z,82.90
2017-04-02T00:46:43.863Z,82.90
2017-04-02T00:47:42.375Z,82.90
2017-04-02T00:48:40.850Z,82.90
2017-04-02T00:49:40.452Z,83.10
2017-04-02T00:50:38.944Z,83.10
2017-04-02T00:51:37.442Z,83.10
2017-04-02T00:52:36.697Z,82.90
2017-04-02T00:53:35.964Z,82.50
2017-04-02T00:54:34.456Z,82.50
2017-04-02T00:55:34.000Z,82.30
2017-04-02T00:56:32.512Z,82.30
2017-04-02T00:57:31.004Z,82.50
2017-04-02T00:58:29.521Z,82.40
2017-04-02T00:59:28.007Z,82.60
2017-04-02T01:00:26.500Z,82.90
2017-04-02T01:01:25.304Z,82.90
2017-04-02T01:02:25.493Z,83.50
2017-04-02T01:03:24.011Z,83.40
2017-04-02T01:04:22.512Z,83.40
2017-04-02T01:05:21.029Z,83.60
2017-04-02T01:06:19.553Z,83.60
2017-04-02T01:07:18.345Z,83.50
2017-04-02T01:08:16.856Z,83.40
2017-04-02T01:09:16.101Z,84.10
2017-04-02T01:10:14.580Z,84.10
2017-04-02T01:11:13.118Z,84.10
2017-04-02T01:12:12.383Z,84.20
2017-04-02T01:13:11.184Z,84.20
2017-04-02T01:14:10.428Z,84.00
2017-04-02T01:15:09.689Z,83.80
2017-04-02T01:16:08.954Z,84.70
2017-04-02T01:17:08.980Z,85.10
2017-04-02T01:18:08.242Z,85.10
2017-04-02T01:19:07.914Z,84.90
2017-04-02T01:20:06.419Z,84.90
2017-04-02T01:21:04.883Z,85.10
2017-04-02T01:22:04.169Z,85.40
2017-04-02T01:23:03.440Z,85.30
2017-04-02T01:24:02.686Z,85.10
2017-04-02T01:25:01.567Z,85.00
2017-04-02T01:26:00.836Z,85.10
2017-04-02T01:27:00.129Z,85.20
2017-04-02T01:27:58.646Z,85.30
2017-04-02T01:28:57.120Z,85.50
2017-04-02T01:29:56.438Z,85.30
2017-04-02T01:30:55.344Z,85.20
2017-04-02T01:31:53.811Z,85.40
2017-04-02T01:32:52.295Z,85.40
2017-04-02T01:33:51.554Z,85.90
2017-04-02T01:34:50.032Z,85.80
2017-04-02T01:35:48.533Z,86.00
2017-04-02T01:36:48.068Z,85.80
2017-04-02T01:37:46.507Z,85.80
2017-04-02T01:38:45.788Z,85.60
2017-04-02T01:39:44.251Z,85.60
2017-04-02T01:40:42.800Z,85.70
2017-04-02T01:41:41.295Z,86.20
2017-04-02T01:42:40.912Z,86.20
2017-04-02T01:43:39.414Z,86.20
2017-04-02T01:44:38.682Z,86.50
2017-04-02T01:45:37.960Z,86.70
2017-04-02T01:46:37.212Z,85.80
2017-04-02T01:47:35.692Z,85.80
2017-04-02T01:48:34.545Z,85.50
2017-04-02T01:49:33.784Z,85.90
2017-04-02T01:50:33.028Z,85.60
2017-04-02T01:51:32.260Z,85.40
2017-04-02T01:52:30.731Z,85.40
2017-04-02T01:53:29.349Z,85.70
2017-04-02T01:54:28.418Z,85.90
2017-04-02T01:55:27.844Z,86.40
2017-04-02T01:56:27.380Z,86.30
2017-04-02T01:57:25.869Z,86.30
2017-04-02T01:58:24.348Z,86.30
2017-04-02T01:59:22.807Z,86.30
2017-04-02T02:00:23.002Z,86.70
2017-04-02T02:01:21.484Z,86.70
2017-04-02T02:02:20.809Z,87.00
2017-04-02T02:03:19.343Z,87.10
2017-04-02T02:04:17.812Z,87.00
2017-04-02T02:05:16.304Z,87.20
2017-04-02T02:06:15.125Z,87.40
2017-04-02T02:07:13.601Z,87.50
2017-04-02T02:08:12.064Z,87.40
2017-04-02T02:09:10.530Z,87.10
2017-04-02T02:10:09.037Z,87.30
2017-04-02T02:11:07.507Z,87.00
2017-04-02T02:12:06.312Z,87.20
2017-04-02T02:13:05.571Z,87.50
2017-04-02T02:14:04.037Z,87.50
2017-04-02T02:15:02.517Z,87.40
2017-04-02T02:16:01.774Z,87.30
2017-04-02T02:17:00.308Z,87.30
2017-04-02T02:17:59.971Z,87.20
2017-04-02T02:18:58.453Z,87.20
2017-04-02T02:19:56.933Z,87.30
2017-04-02T02:20:55.425Z,87.40
2017-04-02T02:21:53.898Z,87.50
2017-04-02T02:22:52.368Z,87.40
2017-04-02T02:23:51.905Z,87.50
2017-04-02T02:24:50.406Z,87.40
2017-04-02T02:25:48.903Z,87.70
2017-04-02T02:26:47.387Z,87.70
2017-04-02T02:27:45.881Z,87.80
2017-04-02T02:28:45.171Z,87.90
2017-04-02T02:29:44.912Z,88.10
2017-04-02T02:30:43.368Z,88.00
2017-04-02T02:31:42.630Z,88.20
2017-04-02T02:32:41.889Z,87.90
2017-04-02T02:33:41.239Z,87.70
2017-04-02T02:34:40.464Z,87.50
2017-04-02T02:35:40.005Z,87.30
2017-04-02T02:36:39.261Z,87.30
2017-04-02T02:37:37.743Z,87.30
2017-04-02T02:38:37.013Z,87.30
2017-04-02T02:39:35.485Z,88.00
2017-04-02T02:40:34.744Z,87.60
2017-04-02T02:41:34.294Z,87.80
2017-04-02T02:42:33.533Z,87.80
2017-04-02T02:43:32.820Z,88.50
2017-04-02T02:44:31.360Z,87.70
2017-04-02T02:45:30.677Z,88.50
2017-04-02T02:46:29.352Z,88.40
2017-04-02T02:47:28.356Z,88.40
2017-04-02T02:48:27.592Z,88.40
2017-04-02T02:49:26.061Z,88.50
2017-04-02T02:50:25.545Z,88.70
2017-04-02T02:51:24.052Z,89.10
2017-04-02T02:52:22.602Z,88.70
2017-04-02T02:53:21.396Z,88.70
2017-04-02T02:54:19.887Z,89.00
2017-04-02T02:55:19.152Z,90.00
2017-04-02T02:56:17.628Z,90.00
2017-04-02T02:57:16.868Z,90.80
2017-04-02T02:58:15.354Z,90.10
2017-04-02T02:59:14.216Z,89.80
2017-04-02T03:00:12.692Z,89.50
2017-04-02T03:01:11.160Z,89.80
2017-04-02T03:02:09.642Z,90.30
2017-04-02T03:03:08.128Z,90.10
2017-04-02T03:04:07.361Z,90.10
2017-04-02T03:05:06.951Z,90.00
2017-04-02T03:06:06.203Z,90.10
2017-04-02T03:07:05.465Z,90.20
2017-04-02T03:08:04.709Z,90.10
2017-04-02T03:09:03.262Z,90.10
2017-04-02T03:10:01.721Z,89.90
2017-04-02T03:11:01.330Z,89.50
2017-04-02T03:11:59.825Z,89.50
2017-04-02T03:12:58.308Z,89.30
2017-04-02T03:13:57.572Z,89.30
2017-04-02T03:14:56.818Z,88.70
2017-04-02T03:15:56.093Z,88.70
2017-04-02T03:16:54.888Z,88.70
2017-04-02T03:17:54.123Z,88.70
2017-04-02T03:18:53.360Z,88.50
2017-04-02T03:19:51.877Z,88.40
2017-04-02T03:20:50.373Z,88.40
2017-04-02T03:21:48.846Z,88.50
2017-04-02T03:22:48.545Z,88.70
2017-04-02T03:23:47.792Z,88.70
2017-04-02T03:24:47.046Z,88.60
2017-04-02T03:25:46.312Z,88.80
2017-04-02T03:26:44.773Z,88.70
2017-04-02T03:27:43.272Z,89.20
2017-04-02T03:28:42.100Z,89.50
2017-04-02T03:29:40.605Z,89.70
2017-04-02T03:30:39.849Z,90.70
2017-04-02T03:31:38.350Z,90.00
2017-04-02T03:32:37.614Z,90.20
2017-04-02T03:33:36.080Z,90.20
2017-04-02T03:34:34.918Z,90.00
2017-04-02T03:35:33.437Z,89.90
2017-04-02T03:36:32.722Z,89.70
2017-04-02T03:37:31.957Z,89.70
2017-04-02T03:38:30.425Z,89.60
2017-04-02T03:39:29.718Z,89.50
2017-04-02T03:40:28.574Z,89.60
2017-04-02T03:41:27.084Z,89.60
2017-04-02T03:42:26.912Z,89.70
2017-04-02T03:43:26.164Z,89.80
2017-04-02T03:44:25.408Z,89.80
2017-04-02T03:45:24.639Z,89.60
2017-04-02T03:46:24.180Z,89.60
2017-04-02T03:47:22.673Z,89.60
2017-04-02T03:48:21.145Z,89.30
2017-04-02T03:49:20.409Z,89.00
2017-04-02T03:50:19.656Z,88.90
2017-04-02T03:51:18.169Z,88.90
2017-04-02T03:52:17.009Z,89.20
2017-04-02T03:53:16.265Z,89.00
2017-04-02T03:54:15.077Z,89.00
2017-04-02T03:55:13.562Z,88.50
2017-04-02T03:56:12.809Z,89.10
2017-04-02T03:57:12.049Z,88.60
2017-04-02T03:58:11.696Z,89.00
2017-04-02T03:59:10.150Z,89.00
2017-04-02T04:00:08.613Z,89.00
2017-04-02T04:01:07.856Z,88.80
2017-04-02T04:02:07.133Z,89.10
2017-04-02T04:03:06.361Z,90.30
2017-04-02T04:04:05.137Z,89.60
2017-04-02T04:05:04.397Z,89.70
2017-04-02T04:06:03.689Z,89.90
2017-04-02T04:07:02.935Z,90.10
2017-04-02T04:08:02.192Z,90.20
2017-04-02T04:09:00.651Z,89.90
2017-04-02T04:09:59.491Z,90.00
2017-04-02T04:10:57.966Z,89.90
2017-04-02T04:11:56.455Z,90.10
2017-04-02T04:12:54.933Z,90.30
2017-04-02T04:13:54.932Z,90.90
2017-04-02T04:14:53.409Z,90.70
2017-04-02T04:15:52.257Z,90.70
2017-04-02T04:16:50.728Z,91.00
2017-04-02T04:17:49.206Z,90.90
2017-04-02T04:18:47.696Z,90.90
2017-04-02T04:19:46.944Z,91.90
2017-04-02T04:20:45.430Z,91.90
2017-04-02T04:21:44.210Z,92.30
2017-04-02T04:22:43.468Z,92.20
2017-04-02T04:23:41.940Z,92.20
2017-04-02T04:24:40.420Z,91.80
2017-04-02T04:25:39.730Z,91.00
2017-04-02T04:26:38.207Z,90.90
2017-04-02T04:27:36.998Z,91.50
2017-04-02T04:28:36.228Z,92.20
2017-04-02T04:29:35.532Z,92.50
2017-04-02T04:30:33.992Z,92.50
2017-04-02T04:31:32.473Z,92.20
2017-04-02T04:32:30.973Z,91.90
2017-04-02T04:33:29.734Z,91.80
2017-04-02T04:34:29.007Z,92.00
2017-04-02T04:35:28.705Z,92.00
2017-04-02T04:36:27.931Z,92.20
2017-04-02T04:37:26.498Z,92.60
2017-04-02T04:38:25.739Z,93.50
2017-04-02T04:39:24.617Z,92.80
2017-04-02T04:40:23.133Z,93.00
2017-04-02T04:41:22.398Z,93.10
2017-04-02T04:42:20.933Z,93.00
2017-04-02T04:43:20.189Z,93.10
2017-04-02T04:44:19.464Z,93.10
2017-04-02T04:45:18.232Z,93.00
2017-04-02T04:46:17.487Z,93.20
2017-04-02T04:47:16.734Z,93.40
2017-04-02T04:48:15.204Z,93.30
2017-04-02T04:49:14.481Z,93.40
2017-04-02T04:50:12.985Z,93.40
2017-04-02T04:51:11.778Z,93.50
2017-04-02T04:52:11.036Z,93.50
2017-04-02T04:53:09.521Z,93.40
2017-04-02T04:54:07.995Z,93.50
2017-04-02T04:55:07.241Z,92.80
2017-04-02T04:56:07.236Z,93.20
2017-04-02T04:57:06.805Z,92.30
2017-04-02T04:58:05.349Z,92.30
2017-04-02T04:59:03.831Z,92.20
2017-04-02T05:00:03.547Z,92.00
2017-04-02T05:01:02.829Z,92.20
2017-04-02T05:02:01.305Z,92.10
2017-04-02T05:03:00.869Z,91.90
2017-04-02T05:03:59.373Z,92.00
2017-04-02T05:04:58.636Z,92.20
2017-04-02T05:05:57.101Z,92.20
2017-04-02T05:06:55.577Z,92.30
2017-04-02T05:07:54.061Z,92.40
2017-04-02T05:08:53.616Z,92.90
2017-04-02T05:09:52.087Z,92.10
2017-04-02T05:10:50.568Z,91.70
2017-04-02T05:11:49.083Z,91.50
2017-04-02T05:12:47.576Z,91.00
2017-04-02T05:13:46.045Z,90.90
2017-04-02T05:14:44.805Z,90.60
2017-04-02T05:15:43.288Z,90.80
2017-04-02T05:16:41.798Z,90.70
2017-04-02T05:17:40.277Z,90.90
2017-04-02T05:18:39.505Z,90.20
2017-04-02T05:19:38.003Z,90.20
2017-04-02T05:20:37.636Z,90.00
2017-04-02T05:21:36.864Z,89.50
2017-04-02T05:22:36.121Z,90.20
2017-04-02T05:23:35.417Z,89.30
2017-04-02T05:24:34.654Z,89.10
2017-04-02T05:25:33.141Z,89.10
2017-04-02T05:26:31.985Z,88.70
2017-04-02T05:27:30.432Z,88.70
2017-04-02T05:28:29.692Z,88.30
2017-04-02T05:29:28.169Z,88.30
2017-04-02T05:30:27.461Z,89.00
2017-04-02T05:31:26.689Z,88.30
2017-04-02T05:32:25.472Z,88.10
2017-04-02T05:33:23.944Z,88.10
2017-04-02T05:34:22.449Z,88.20
2017-04-02T05:35:21.688Z,87.50
2017-04-02T05:36:20.175Z,87.50
2017-04-02T05:37:19.469Z,87.50
2017-04-02T05:38:18.996Z,87.00
2017-04-02T05:39:17.486Z,87.30
2017-04-02T05:40:16.717Z,86.60
2017-04-02T05:41:15.982Z,86.80
2017-04-02T05:42:14.461Z,86.80
2017-04-02T05:43:12.949Z,86.40
2017-04-02T05:44:12.593Z,86.30
2017-04-02T05:45:11.052Z,86.30
2017-04-02T05:46:09.524Z,85.90
2017-04-02T05:47:07.981Z,86.20
2017-04-02T05:48:06.465Z,85.70
2017-04-02T05:49:04.940Z,85.60
2017-04-02T05:50:04.502Z,85.00
2017-04-02T05:51:02.975Z,85.50
2017-04-02T05:52:01.443Z,85.30
2017-04-02T05:52:59.979Z,84.80
2017-04-02T05:53:59.280Z,84.70
2017-04-02T05:54:57.746Z,84.60
2017-04-02T05:55:56.512Z,84.90
2017-04-02T05:56:55.793Z,84.60
2017-04-02T05:57:54.268Z,84.50
2017-04-02T05:58:52.797Z,84.00
2017-04-02T05:59:51.296Z,84.10
2017-04-02T06:00:49.801Z,84.10
2017-04-02T06:01:49.449Z,84.20
2017-04-02T06:02:47.953Z,84.20
2017-04-02T06:03:47.192Z,86.80
2017-04-02T06:04:46.432Z,85.80
2017-04-02T06:05:45.671Z,85.80
2017-04-02T06:06:44.177Z,85.80
2017-04-02T06:07:44.159Z,83.00
2017-04-02T06:08:43.404Z,84.80
2017-04-02T06:09:41.905Z,84.70
2017-04-02T06:10:40.719Z,85.10
2017-04-02T06:11:39.959Z,85.40
2017-04-02T06:12:38.445Z,85.40
2017-04-02T06:13:37.975Z,84.10
2017-04-02T06:14:36.513Z,84.00
2017-04-02T06:15:35.729Z,80.90
2017-04-02T06:16:34.194Z,80.90
2017-04-02T06:17:33.460Z,80.60
2017-04-02T06:18:32.092Z,80.60
2017-04-02T06:19:31.699Z,79.70
2017-04-02T06:20:30.989Z,78.50
2017-04-02T06:21:30.245Z,78.00
2017-04-02T06:22:29.664Z,75.50
2017-04-02T06:23:28.594Z,75.40
2017-04-02T06:24:27.060Z,74.80
2017-04-02T06:25:25.908Z,74.10
2017-04-02T06:26:24.415Z,72.20
2017-04-02T06:27:22.888Z,71.90
2017-04-02T06:28:22.137Z,71.90
2017-04-02T06:29:20.643Z,71.80
2017-04-02T06:30:19.271Z,71.10
2017-04-02T06:31:18.145Z,69.00
2017-04-02T06:32:16.624Z,69.10
2017-04-02T06:33:15.108Z,67.70
2017-04-02T06:34:14.360Z,66.30
2017-04-02T06:35:13.617Z,65.40
2017-04-02T06:36:12.097Z,65.50
2017-04-02T06:37:10.865Z,63.30
2017-04-02T06:38:10.120Z,60.20
2017-04-02T06:39:09.372Z,59.50
2017-04-02T06:40:08.632Z,59.00
2017-04-02T06:41:07.140Z,58.30
2017-04-02T06:42:06.376Z,57.80
2017-04-02T06:43:05.142Z,57.80
2017-04-02T06:44:03.628Z,56.70
2017-04-02T06:45:02.356Z,57.30
2017-04-02T06:46:00.918Z,56.10
2017-04-02T06:46:59.438Z,57.00
2017-04-02T06:47:57.911Z,54.00
2017-04-02T06:48:57.565Z,55.80
2017-04-02T06:49:57.350Z,56.40
2017-04-02T06:50:56.599Z,55.60
2017-04-02T06:51:55.863Z,54.90
2017-04-02T06:52:55.101Z,55.10
2017-04-02T06:53:54.357Z,55.40
2017-04-02T06:54:53.130Z,55.40
2017-04-02T06:55:51.595Z,55.00
2017-04-02T06:56:50.094Z,54.10
2017-04-02T06:57:48.564Z,53.00
2017-04-02T06:58:47.832Z,52.40
2017-04-02T06:59:46.310Z,52.40
2017-04-02T07:00:45.182Z,51.00
2017-04-02T07:01:43.653Z,51.20
2017-04-02T07:02:42.126Z,51.70
2017-04-02T07:03:41.444Z,50.60
2017-04-02T07:04:39.928Z,50.50
2017-04-02T07:05:39.192Z,49.20
2017-04-02T07:06:38.737Z,48.30
2017-04-02T07:07:37.261Z,48.20
2017-04-02T07:08:36.505Z,48.10
2017-04-02T07:09:34.990Z,48.10
2017-04-02T07:10:34.241Z,49.80
2017-04-02T07:11:32.701Z,49.70
2017-04-02T07:12:31.467Z,49.70
2017-04-02T07:13:29.966Z,49.50
2017-04-02T07:14:29.215Z,52.40
2017-04-02T07:15:27.716Z,52.40
2017-04-02T07:16:26.184Z,52.90
2017-04-02T07:17:25.449Z,53.20
2017-04-02T07:18:24.222Z,53.10
2017-04-02T07:19:23.473Z,52.70
2017-04-02T07:20:21.952Z,53.40
2017-04-02T07:21:20.454Z,52.70
2017-04-02T07:22:19.702Z,54.40
2017-04-02T07:23:18.177Z,54.30
2017-04-02T07:24:17.036Z,53.70
2017-04-02T07:25:16.289Z,52.70
2017-04-02T07:26:14.764Z,52.70
2017-04-02T07:27:13.244Z,50.90
2017-04-02T07:28:11.739Z,49.40
2017-04-02T07:29:10.279Z,48.90
2017-04-02T07:30:09.101Z,47.20
2017-04-02T07:31:08.512Z,47.80
2017-04-02T07:32:06.985Z,47.70
2017-04-02T07:33:05.466Z,48.60
2017-04-02T07:34:03.923Z,48.70
2017-04-02T07:35:02.428Z,49.90
2017-04-02T07:36:01.377Z,51.80
2017-04-02T07:37:00.601Z,56.90
2017-04-02T07:37:59.847Z,58.20
2017-04-02T07:38:58.329Z,58.10
2017-04-02T07:39:56.814Z,60.50
2017-04-02T07:40:56.055Z,63.60
2017-04-02T07:41:54.846Z,62.60
2017-04-02T07:42:54.107Z,62.70
2017-04-02T07:43:52.579Z,62.70
2017-04-02T07:44:51.821Z,63.60
2017-04-02T07:45:51.068Z,64.20
2017-04-02T07:46:49.546Z,64.20
2017-04-02T07:47:48.369Z,64.30
2017-04-02T07:48:46.836Z,65.10
2017-04-02T07:49:46.089Z,69.10
2017-04-02T07:50:45.346Z,69.90
2017-04-02T07:51:43.824Z,69.90
2017-04-02T07:52:43.137Z,70.60
2017-04-02T07:53:41.920Z,71.10
2017-04-02T07:54:40.401Z,72.20
2017-04-02T07:55:38.874Z,72.50
2017-04-02T07:56:38.130Z,72.60
2017-04-02T07:57:37.392Z,73.10
2017-04-02T07:58:36.297Z,73.00
2017-04-02T07:59:35.076Z,73.80
2017-04-02T08:00:34.373Z,75.10
2017-04-02T08:01:32.856Z,75.10
2017-04-02T08:02:31.344Z,75.00
2017-04-02T08:03:30.582Z,76.70
2017-04-02T08:04:29.854Z,76.50
2017-04-02T08:05:29.581Z,77.60
2017-04-02T08:06:28.044Z,77.60
2017-04-02T08:07:26.522Z,78.90
2017-04-02T08:08:25.772Z,79.50
2017-04-02T08:09:24.218Z,79.50
2017-04-02T08:10:22.701Z,79.90
2017-04-02T08:11:21.497Z,80.40
2017-04-02T08:12:20.019Z,81.90
2017-04-02T08:13:18.517Z,82.80
2017-04-02T08:14:16.976Z,82.90
2017-04-02T08:15:15.468Z,83.20
2017-04-02T08:16:14.797Z,84.80
2017-04-02T08:17:13.616Z,84.60
2017-04-02T08:18:12.901Z,85.60
2017-04-02T08:19:11.406Z,85.50
2017-04-02T08:20:10.020Z,85.00
2017-04-02T08:21:08.555Z,85.20
2017-04-02T08:22:07.097Z,85.30
2017-04-02T08:23:06.656Z,85.40
2017-04-02T08:24:05.114Z,85.40
2017-04-02T08:25:04.384Z,86.00
2017-04-02T08:26:02.864Z,86.10
2017-04-02T08:27:01.320Z,85.20
2017-04-02T08:27:59.822Z,85.20
2017-04-02T08:28:59.356Z,84.50
2017-04-02T08:29:58.604Z,84.10
2017-04-02T08:30:57.889Z,83.60
2017-04-02T08:31:57.162Z,83.50
2017-04-02T08:32:56.439Z,83.20
2017-04-02T08:33:55.688Z,84.40
2017-04-02T08:34:54.553Z,83.50
2017-04-02T08:35:53.088Z,82.40
2017-04-02T08:36:52.393Z,83.40
2017-04-02T08:37:51.637Z,83.20
2017-04-02T08:38:50.884Z,84.20
2017-04-02T08:39:49.347Z,84.20
2017-04-02T08:40:48.104Z,84.30
2017-04-02T08:41:46.607Z,84.50
2017-04-02T08:42:45.048Z,85.00
2017-04-02T08:43:43.543Z,85.40
2017-04-02T08:44:42.789Z,85.90
2017-04-02T08:45:41.297Z,85.60
2017-04-02T08:46:40.813Z,86.10
2017-04-02T08:47:39.300Z,86.10
2017-04-02T08:48:38.588Z,85.50
2017-04-02T08:49:37.108Z,85.50
2017-04-02T08:50:36.371Z,86.70
2017-04-02T08:51:34.872Z,86.70
2017-04-02T08:52:34.624Z,85.70
2017-04-02T08:53:33.195Z,85.70
2017-04-02T08:54:31.816Z,85.80
2017-04-02T08:55:31.067Z,85.10
2017-04-02T08:56:30.340Z,85.00
2017-04-02T08:57:28.802Z,85.00
2017-04-02T08:58:28.385Z,85.10
2017-04-02T08:59:26.881Z,84.70
2017-04-02T09:00:26.089Z,84.60
2017-04-02T09:01:24.588Z,84.50
2017-04-02T09:02:23.395Z,84.80
2017-04-02T09:03:22.796Z,84.50
2017-04-02T09:04:21.584Z,84.50
2017-04-02T09:05:20.076Z,85.60
2017-04-02T09:06:18.588Z,86.00
2017-04-02T09:07:17.854Z,86.20
2017-04-02T09:08:16.361Z,86.70
2017-04-02T09:09:14.848Z,85.90
2017-04-02T09:10:13.721Z,85.70
2017-04-02T09:11:12.237Z,85.80
2017-04-02T09:12:11.547Z,85.10
2017-04-02T09:13:10.088Z,85.00
2017-04-02T09:14:09.383Z,84.90
2017-04-02T09:15:07.868Z,84.90
2017-04-02T09:16:07.475Z,86.20
2017-04-02T09:17:06.722Z,85.50
2017-04-02T09:18:05.972Z,84.80
2017-04-02T09:19:05.240Z,84.30
2017-04-02T09:20:04.504Z,83.40
2017-04-02T09:21:03.095Z,83.40
2017-04-02T09:22:02.677Z,82.90
2017-04-02T09:23:01.160Z,82.90
2017-04-02T09:23:59.682Z,82.60
2017-04-02T09:24:58.173Z,82.50
2017-04-02T09:25:56.640Z,82.90
2017-04-02T09:26:55.133Z,81.90
2017-04-02T09:27:54.691Z,83.20
2017-04-02T09:28:53.272Z,83.20
2017-04-02T09:29:52.547Z,82.50
2017-04-02T09:30:51.042Z,82.50
2017-04-02T09:31:50.308Z,82.20
2017-04-02T09:32:49.531Z,82.00
2017-04-02T09:33:49.080Z,82.70
2017-04-02T09:34:47.567Z,82.70
2017-04-02T09:35:46.809Z,83.50
2017-04-02T09:36:46.133Z,83.60
2017-04-02T09:37:45.377Z,83.50
2017-04-02T09:38:43.852Z,83.50
2017-04-02T09:39:42.606Z,83.20
2017-04-02T09:40:41.098Z,83.00
2017-04-02T09:41:39.570Z,82.70
2017-04-02T09:42:38.040Z,82.00
2017-04-02T09:43:36.564Z,82.20
2017-04-02T09:44:35.036Z,82.90
2017-04-02T09:45:33.933Z,83.20
2017-04-02T09:46:33.189Z,84.00
2017-04-02T09:47:31.673Z,84.10
2017-04-02T09:48:30.196Z,84.00
2017-04-02T09:49:29.513Z,83.40
2017-04-02T09:50:28.764Z,83.30
2017-04-02T09:51:28.417Z,82.50
2017-04-02T09:52:26.911Z,82.50
2017-04-02T09:53:26.177Z,81.20
2017-04-02T09:54:25.464Z,81.10
2017-04-02T09:55:24.719Z,80.90
2017-04-02T09:56:23.189Z,80.80
2017-04-02T09:57:22.716Z,79.80
2017-04-02T09:58:21.977Z,79.50
2017-04-02T09:59:21.252Z,78.90
2017-04-02T10:00:19.733Z,78.90
2017-04-02T10:01:19.082Z,78.10
2017-04-02T10:02:18.328Z,77.40
2017-04-02T10:03:17.853Z,78.10
2017-04-02T10:04:16.339Z,78.10
2017-04-02T10:05:14.816Z,78.40
2017-04-02T10:06:14.089Z,77.40
2017-04-02T10:07:12.672Z,77.20
2017-04-02T10:08:11.941Z,77.10
2017-04-02T10:09:10.786Z,77.00
2017-04-02T10:10:10.089Z,77.20
2017-04-02T10:11:08.573Z,77.20
2017-04-02T10:12:07.062Z,76.30
2017-04-02T10:13:06.328Z,77.80
2017-04-02T10:14:04.839Z,78.60
2017-04-02T10:15:03.629Z,78.30
2017-04-02T10:16:02.188Z,78.50
2017-04-02T10:17:00.828Z,77.60
2017-04-02T10:17:59.325Z,77.80
2017-04-02T10:18:57.824Z,77.30
2017-04-02T10:19:56.317Z,77.40
2017-04-02T10:20:55.851Z,77.30
2017-04-02T10:21:54.309Z,77.10
2017-04-02T10:22:53.573Z,77.30
2017-04-02T10:23:52.044Z,77.40
2017-04-02T10:24:51.085Z,77.10
2017-04-02T10:25:50.346Z,76.10
2017-04-02T10:26:49.216Z,76.00
2017-04-02T10:27:48.460Z,76.80
2017-04-02T10:28:46.938Z,76.90
2017-04-02T10:29:46.173Z,76.70
2017-04-02T10:30:44.709Z,76.70
2017-04-02T10:31:43.189Z,76.40
2017-04-02T10:32:42.035Z,76.40
2017-04-02T10:33:40.508Z,76.60
2017-04-02T10:34:39.002Z,75.80
2017-04-02T10:35:38.278Z,75.70
2017-04-02T10:36:37.585Z,75.80
2017-04-02T10:37:36.843Z,75.80
2017-04-02T10:38:36.517Z,76.10
2017-04-02T10:39:34.996Z,76.20
2017-04-02T10:40:34.244Z,76.50
2017-04-02T10:41:32.737Z,76.50
2017-04-02T10:42:32.039Z,77.50
2017-04-02T10:43:30.525Z,78.30
2017-04-02T10:44:30.157Z,78.50
2017-04-02T10:45:29.898Z,79.60
2017-04-02T10:46:29.161Z,79.50
2017-04-02T10:47:27.644Z,79.30
2017-04-02T10:48:26.895Z,79.60
2017-04-02T10:49:25.396Z,79.70
2017-04-02T10:50:25.055Z,79.80
2017-04-02T10:51:24.296Z,80.30
2017-04-02T10:52:22.935Z,80.30
2017-04-02T10:53:22.256Z,81.10
2017-04-02T10:54:21.513Z,80.50
2017-04-02T10:55:20.745Z,81.10
2017-04-02T10:56:19.628Z,81.10
2017-04-02T10:57:18.881Z,79.50
2017-04-02T10:58:18.145Z,78.50
2017-04-02T10:59:17.440Z,77.80
2017-04-02T11:00:15.947Z,77.80
2017-04-02T11:01:14.508Z,78.50
2017-04-02T11:02:14.096Z,78.70
2017-04-02T11:03:12.588Z,78.60
2017-04-02T11:04:11.888Z,78.50
2017-04-02T11:05:10.421Z,78.50
2017-04-02T11:06:09.673Z,80.60
2017-04-02T11:07:08.159Z,80.50
2017-04-02T11:08:07.043Z,80.20
2017-04-02T11:09:05.972Z,79.90
2017-04-02T11:10:04.500Z,78.90
2017-04-02T11:11:03.024Z,77.80
2017-04-02T11:12:01.547Z,76.50
2017-04-02T11:13:00.010Z,76.70
2017-04-02T11:13:58.845Z,76.90
2017-04-02T11:14:57.345Z,76.40
2017-04-02T11:15:56.592Z,75.60
2017-04-02T11:16:55.848Z,77.30
2017-04-02T11:17:54.319Z,77.30
2017-04-02T11:18:52.836Z,77.50
2017-04-02T11:19:52.379Z,77.90
2017-04-02T11:20:50.855Z,77.90
2017-04-02T11:21:49.413Z,77.40
2017-04-02T11:22:47.913Z,76.10
2017-04-02T11:23:46.385Z,75.90
2017-04-02T11:24:45.670Z,76.60
2017-04-02T11:25:44.520Z,76.70
2017-04-02T11:26:43.004Z,76.40
2017-04-02T11:27:41.505Z,76.30
2017-04-02T11:28:40.092Z,76.70
2017-04-02T11:29:38.693Z,76.50
2017-04-02T11:30:37.237Z,76.60
2017-04-02T11:31:36.882Z,76.90
2017-04-02T11:32:35.381Z,77.00
2017-04-02T11:33:33.860Z,74.80
2017-04-02T11:34:32.361Z,74.50
2017-04-02T11:35:30.873Z,72.20
2017-04-02T11:36:29.380Z,72.50
2017-04-02T11:37:28.249Z,72.20
2017-04-02T11:38:27.536Z,71.90
2017-04-02T11:39:26.032Z,72.00
2017-04-02T11:40:24.529Z,72.80
2017-04-02T11:41:23.002Z,71.70
2017-04-02T11:42:22.303Z,71.70
2017-04-02T11:43:21.392Z,71.70
2017-04-02T11:44:19.881Z,71.60
2017-04-02T11:45:18.356Z,71.50
2017-04-02T11:46:16.827Z,70.40
2017-04-02T11:47:16.072Z,70.20
2017-04-02T11:48:15.328Z,71.00
2017-04-02T11:49:14.917Z,70.80
2017-04-02T11:50:13.388Z,70.80
2017-04-02T11:51:11.955Z,69.70
2017-04-02T11:52:11.243Z,71.20
2017-04-02T11:53:09.722Z,71.00
2017-04-02T11:54:08.233Z,71.40
2017-04-02T11:55:07.888Z,70.40
2017-04-02T11:56:07.140Z,68.80
2017-04-02T11:57:06.384Z,69.50
2017-04-02T11:58:04.847Z,69.40
2017-04-02T11:59:03.347Z,68.20
2017-04-02T12:00:02.633Z,69.50
2017-04-02T12:01:02.353Z,69.80
2017-04-02T12:02:00.853Z,69.80
2017-04-02T12:03:00.677Z,69.70
2017-04-02T12:03:59.916Z,68.60
2017-04-02T12:04:59.163Z,68.20
2017-04-02T12:05:57.657Z,68.30
2017-04-02T12:06:57.350Z,68.60
2017-04-02T12:07:56.592Z,68.60
2017-04-02T12:08:55.080Z,68.50
2017-04-02T12:09:53.561Z,67.90
2017-04-02T12:10:52.047Z,68.70
2017-04-02T12:11:50.537Z,69.40
2017-04-02T12:12:50.115Z,69.10
2017-04-02T12:13:49.480Z,69.40
2017-04-02T12:14:47.964Z,69.30
2017-04-02T12:15:46.453Z,68.10
2017-04-02T12:16:45.752Z,66.70
2017-04-02T12:17:44.321Z,66.70
2017-04-02T12:18:43.128Z,67.30
2017-04-02T12:19:42.387Z,67.40
2017-04-02T12:20:40.919Z,66.70
2017-04-02T12:21:40.152Z,66.50
2017-04-02T12:22:38.652Z,66.40
2017-04-02T12:23:37.908Z,66.70
2017-04-02T12:24:36.769Z,66.70
2017-04-02T12:25:36.006Z,67.80
2017-04-02T12:26:35.264Z,69.20
2017-04-02T12:27:33.770Z,69.20
2017-04-02T12:28:32.256Z,69.80
2017-04-02T12:29:30.721Z,69.00
2017-04-02T12:30:29.645Z,68.70
2017-04-02T12:31:28.123Z,69.20
2017-04-02T12:32:27.357Z,68.90
2017-04-02T12:33:26.639Z,69.30
2017-04-02T12:34:25.964Z,69.20
2017-04-02T12:35:25.305Z,69.70
2017-04-02T12:36:24.851Z,69.30
2017-04-02T12:37:24.258Z,69.30
2017-04-02T12:38:22.766Z,69.30